Westcliff-on-Sea, United Kingdom
Current Conditions -  °F | °C
As of 10:20 AM on Thursday 23 Oct 2014 (Local Time) from EGMC Reporting Station
Broken Clouds Broken Clouds  
Wind Chill: 55°   Ceiling: 3000
Heat Index: 55°   Visibility: 6mi
Dew Point: 46°   Wind: 9mph
Humidity: 72%   Direction: 210°SSW
Pressure: 30.12"   Gusts: NA
Location:  51.55°N, 0.68°E
Report Text: EGMC 230920Z 21008KT 9999 FEW027 BKN030 13/08 Q1020
Loading
Personal Weather Stations






























Interactive Weather Map
Tropical Storm Tracking
New forecast layout! Learn more

10-Day Weather Forecast

Advertisements
Track Severe Weather on mobile